Time;durP1;ratioP1;P1;durP2;ratioP2;P2;SDS_P1;SDS_P2;PMS_P1;PMS_P2;Temp;Humidity;BMP_temperature;BMP_pressure;BME280_temperature;BME280_humidity;BME280_pressure;Samples;Min_cycle;Max_cycle;Signal;HPM_P1;HPM_P2
2022/05/29 00:09:16;;;;;;;5.73;2.37;;;;;;;22.09;70.02;98543.03;6155507;23;20253;-92
2022/05/29 00:11:42;;;;;;;5.67;2.00;;;;;;;22.09;69.71;98537.69;6130597;23;20170;-90
2022/05/29 00:14:07;;;;;;;7.23;2.13;;;;;;;22.02;70.08;98540.19;6130767;23;20159;-92
2022/05/29 00:16:33;;;;;;;8.00;2.03;;;;;;;21.76;71.31;98558.16;6156231;23;20187;-90
2022/05/29 00:18:58;;;;;;;7.87;1.80;;;;;;;21.74;71.40;98550.31;6130511;23;20178;-90
2022/05/29 00:21:24;;;;;;;6.27;2.33;;;;;;;21.72;71.59;98548.81;6156552;23;20148;-89
2022/05/29 00:23:50;;;;;;;7.03;2.57;;;;;;;21.67;71.66;98545.81;6130375;23;20583;-91
2022/05/29 00:26:17;;;;;;;4.20;1.90;;;;;;;21.70;72.04;98559.63;6156138;23;20178;-90
2022/05/29 00:28:43;;;;;;;9.80;2.13;;;;;;;21.76;71.80;98558.16;6131008;23;20177;-91
2022/05/29 00:31:10;;;;;;;7.20;2.33;;;;;;;21.74;72.49;98550.31;6156036;23;20151;-91
2022/05/29 00:33:35;;;;;;;4.77;1.97;;;;;;;21.67;72.66;98541.28;6156029;23;20217;-92
2022/05/29 00:36:01;;;;;;;6.77;2.80;;;;;;;21.73;72.19;98537.97;6130734;23;20191;-90
2022/05/29 00:38:27;;;;;;;7.13;1.93;;;;;;;21.69;72.54;98528.66;6130218;23;20487;-90
2022/05/29 00:41:17;;;;;;;5.10;2.13;;;;;;;21.70;72.03;98522.28;6130707;23;20241;-91
2022/05/29 00:44:14;;;;;;;3.17;1.53;;;;;;;21.67;72.16;98530.63;6130375;23;20151;-91
2022/05/29 00:46:47;;;;;;;3.97;1.90;;;;;;;21.73;72.35;98524.63;6156355;23;20146;-90
2022/05/29 00:49:18;;;;;;;6.90;2.13;;;;;;;21.71;71.73;98518.63;6130179;23;20155;-91
2022/05/29 00:51:58;;;;;;;6.53;2.30;;;;;;;21.68;72.05;98513.63;6156089;23;20253;-90
2022/05/29 00:54:24;;;;;;;8.03;3.00;;;;;;;21.67;72.14;98509.28;6156082;23;20171;-91
2022/05/29 00:56:52;;;;;;;15.97;2.97;;;;;;;21.63;71.99;98499.13;6130202;23;20159;-91
2022/05/29 00:59:22;;;;;;;7.73;2.57;;;;;;;21.55;72.57;98491.09;6156214;23;20147;-92
2022/05/29 01:01:49;;;;;;;10.10;2.47;;;;;;;21.50;73.23;98464.09;6130280;23;20639;-91
2022/05/29 01:04:15;;;;;;;9.30;1.67;;;;;;;21.38;73.87;98440.41;6155932;23;20159;-91
2022/05/29 01:06:41;;;;;;;4.77;2.10;;;;;;;21.36;74.34;98436.25;6155850;23;20189;-91
2022/05/29 01:09:09;;;;;;;5.13;2.00;;;;;;;21.19;73.85;98454.06;6130159;23;20206;-90
2022/05/29 01:11:53;;;;;;;4.90;1.70;;;;;;;21.16;72.87;98456.22;6130174;23;20151;-90
2022/05/29 01:14:46;;;;;;;3.20;1.70;;;;;;;21.10;72.60;98449.72;6131231;23;20147;-90
2022/05/29 01:17:33;;;;;;;5.97;2.10;;;;;;;21.24;72.06;98459.75;6130227;23;20618;-91
2022/05/29 01:20:13;;;;;;;6.97;2.37;;;;;;;21.34;71.88;98460.41;6155739;23;20151;-91
2022/05/29 01:22:45;;;;;;;2.63;1.70;;;;;;;21.37;72.06;98469.94;6130053;23;20143;-90
2022/05/29 01:25:25;;;;;;;7.07;2.00;;;;;;;21.30;72.16;98475.06;6156070;23;20146;-90
2022/05/29 01:28:09;;;;;;;6.00;2.03;;;;;;;21.23;72.47;98474.06;6130233;23;20151;-91
2022/05/29 01:30:44;;;;;;;9.43;2.47;;;;;;;21.35;72.11;98469.25;6155952;23;20147;-91
2022/05/29 01:33:25;;;;;;;3.43;1.67;;;;;;;21.38;71.68;98476.94;6130237;23;20139;-91
2022/05/29 01:36:14;;;;;;;3.90;1.70;;;;;;;21.30;71.75;98475.06;6158084;23;20163;-90
2022/05/29 01:38:51;;;;;;;4.77;2.00;;;;;;;21.22;71.18;98482.22;6131713;23;20158;-92
2022/05/29 01:41:29;;;;;;;6.93;1.60;;;;;;;21.15;71.75;98482.03;6132077;23;20147;-91
2022/05/29 01:44:01;;;;;;;5.03;1.80;;;;;;;21.18;71.65;98481.72;6157748;23;20140;-90
2022/05/29 01:46:31;;;;;;;3.33;1.33;;;;;;;21.22;71.34;98477.75;6132137;23;20135;-90
2022/05/29 01:49:04;;;;;;;8.07;1.90;;;;;;;21.23;71.05;98479.38;6158004;23;20225;-92
2022/05/29 01:51:38;;;;;;;4.43;1.93;;;;;;;21.23;70.88;98484.72;6131885;23;20584;-91
2022/05/29 01:54:06;;;;;;;5.10;2.80;;;;;;;21.19;70.94;98491.38;6131663;23;20153;-90
2022/05/29 01:56:38;;;;;;;4.27;1.80;;;;;;;21.13;70.64;98502.69;6132208;23;20191;-93
2022/05/29 01:59:26;;;;;;;7.00;1.33;;;;;;;21.03;70.92;98503.78;6132068;23;20163;-91
2022/05/29 02:02:02;;;;;;;9.07;2.23;;;;;;;20.98;70.85;98508.78;6132068;23;20155;-90
2022/05/29 02:04:31;;;;;;;12.80;2.33;;;;;;;21.00;71.37;98514.78;6157330;23;20159;-91
2022/05/29 02:09:54;;;;;;;8.50;2.33;;;;;;;20.93;71.33;98509.25;6157355;23;20516;-91
2022/05/29 02:12:23;;;;;;;4.43;2.20;;;;;;;20.96;71.20;98511.63;6157867;23;20477;-91
2022/05/29 02:15:00;;;;;;;7.83;1.90;;;;;;;20.97;71.58;98499.94;6131568;23;20183;-91
2022/05/29 02:17:39;;;;;;;3.53;1.70;;;;;;;20.93;71.63;98492.44;6157279;23;20539;-91
2022/05/29 02:20:42;;;;;;;3.80;1.90;;;;;;;20.91;71.81;98495.25;6131751;23;20555;-90
2022/05/29 02:23:31;;;;;;;9.57;2.43;;;;;;;20.82;72.42;98501.56;6011066;23;20169;-92
2022/05/29 02:26:00;;;;;;;6.20;2.07;;;;;;;20.75;73.47;98513.84;6124701;23;20317;-90
2022/05/29 02:28:41;;;;;;;8.97;2.13;;;;;;;20.77;73.74;98522.50;6131619;23;20151;-92
2022/05/29 02:31:22;;;;;;;6.20;1.63;;;;;;;20.76;73.72;98518.16;6157274;23;20135;-91
2022/05/29 02:34:15;;;;;;;9.27;1.97;;;;;;;20.79;73.74;98517.84;6130890;23;20147;-90
2022/05/29 02:36:50;;;;;;;5.07;2.03;;;;;;;20.83;73.61;98516.56;6131528;23;20179;-91
2022/05/29 02:39:50;;;;;;;7.40;2.37;;;;;;;20.88;73.17;98522.22;6157058;23;20151;-91
2022/05/29 02:42:26;;;;;;;5.20;2.57;;;;;;;20.88;72.96;98516.91;6157396;23;20136;-92
2022/05/29 02:45:20;;;;;;;6.90;2.03;;;;;;;20.85;72.95;98522.56;6131331;23;20140;-91
2022/05/29 02:52:10;;;;;;;5.27;2.07;;;;;;;20.69;74.61;98477.19;6010670;23;20157;-91
2022/05/29 02:54:50;;;;;;;6.13;2.43;;;;;;;20.72;74.47;98487.53;6022300;23;20167;-90
2022/05/29 02:57:45;;;;;;;4.23;1.83;;;;;;;20.72;74.72;98516.81;6037228;23;20157;-90
2022/05/29 03:00:12;;;;;;;6.60;2.20;;;;;;;20.75;74.51;98535.97;6043700;23;20145;-90
2022/05/29 03:03:19;;;;;;;3.53;1.53;;;;;;;20.82;74.29;98544.19;6089637;23;20159;-92
2022/05/29 03:05:55;;;;;;;4.20;1.77;;;;;;;20.81;74.13;98542.50;6067570;23;20727;-91
2022/05/29 03:08:36;;;;;;;4.93;2.03;;;;;;;20.86;73.70;98542.03;6144748;23;20581;-91
2022/05/29 03:11:19;;;;;;;9.90;2.13;;;;;;;20.91;73.59;98548.53;6157671;23;20147;-92
2022/05/29 03:14:33;;;;;;;4.17;1.50;;;;;;;20.86;73.94;98566.81;6131198;23;20625;-90
2022/05/29 03:17:16;;;;;;;3.27;1.53;;;;;;;20.84;74.26;98574.16;6090130;23;20666;-91
2022/05/29 03:19:53;;;;;;;5.27;1.83;;;;;;;20.77;74.34;98589.09;6131138;23;20456;-90
2022/05/29 03:22:33;;;;;;;16.00;1.93;;;;;;;20.74;74.69;98616.03;6157044;23;20150;-91
2022/05/29 03:25:08;;;;;;;4.53;1.97;;;;;;;20.77;74.74;98639.72;6131129;23;20150;-91
2022/05/29 03:27:41;;;;;;;8.67;1.83;;;;;;;20.73;74.52;98641.00;6131137;23;20154;-92
2022/05/29 03:30:21;;;;;;;7.20;2.13;;;;;;;20.72;73.92;98634.03;6157370;23;20139;-91
2022/05/29 03:32:53;;;;;;;3.70;1.53;;;;;;;20.74;73.57;98621.38;6131561;23;20159;-91
2022/05/29 03:35:22;;;;;;;6.83;1.90;;;;;;;20.67;73.76;98615.00;6131038;23;20171;-90
2022/05/29 03:37:48;;;;;;;10.37;3.00;;;;;;;20.51;74.85;98589.13;6130811;23;20223;-91
2022/05/29 03:40:14;;;;;;;5.63;1.63;;;;;;;20.49;75.17;98561.78;6131007;23;20610;-91
2022/05/29 03:42:41;;;;;;;6.17;2.43;;;;;;;20.60;75.28;98558.88;6130991;23;20594;-91
2022/05/29 03:45:08;;;;;;;6.33;1.73;;;;;;;20.68;76.00;98558.91;6130862;23;20579;-92
2022/05/29 03:47:34;;;;;;;11.90;2.17;;;;;;;20.69;75.74;98512.66;6156542;23;20151;-91
2022/05/29 03:49:59;;;;;;;10.47;2.87;;;;;;;20.66;76.08;98486.34;6157043;23;20217;-92
2022/05/29 03:52:25;;;;;;;4.57;1.70;;;;;;;20.75;75.68;98485.38;6156545;23;20155;-90
2022/05/29 03:54:53;;;;;;;3.50;1.60;;;;;;;20.73;75.92;98514.00;6130695;23;20250;-91
2022/05/29 03:57:19;;;;;;;7.57;2.63;;;;;;;20.86;76.06;98532.19;6130318;23;20151;-92
2022/05/29 03:59:44;;;;;;;5.30;1.80;;;;;;;20.90;75.45;98536.22;6130705;23;20159;-93
2022/05/29 04:02:10;;;;;;;5.47;1.50;;;;;;;20.89;75.59;98526.53;6130906;23;20155;-91
2022/05/29 04:04:35;;;;;;;3.47;1.70;;;;;;;21.04;75.48;98505.47;6156376;23;20147;-92
2022/05/29 04:07:01;;;;;;;9.07;2.03;;;;;;;21.13;75.55;98480.53;6130581;23;20155;-92
2022/05/29 04:12:13;;;;;;;5.07;1.97;;;;;;;21.11;75.37;98466.53;6157168;23;20621;-93
2022/05/29 04:14:42;;;;;;;3.73;1.90;;;;;;;21.09;75.25;98463.22;6156275;23;20658;-90
2022/05/29 04:17:09;;;;;;;7.23;2.20;;;;;;;21.07;75.45;98452.69;6156378;23;20158;-90
2022/05/29 04:19:35;;;;;;;7.73;2.30;;;;;;;21.14;75.50;98453.72;6130850;23;20155;-91
2022/05/29 04:22:05;;;;;;;7.70;2.83;;;;;;;21.19;75.50;98464.75;6130665;23;20232;-91
2022/05/29 04:24:30;;;;;;;4.33;2.20;;;;;;;21.19;75.49;98487.88;6156587;23;20211;-92
2022/05/29 04:26:56;;;;;;;10.13;2.90;;;;;;;21.14;76.06;98493.72;6156581;23;20147;-92
2022/05/29 04:29:21;;;;;;;4.83;1.80;;;;;;;21.09;76.79;98505.84;6156237;23;20575;-91
2022/05/29 04:34:32;;;;;;;6.97;2.50;;;;;;;21.35;76.33;98503.91;6156281;23;20166;-90
2022/05/29 04:36:57;;;;;;;3.97;2.23;;;;;;;21.40;75.90;98507.78;6130529;23;20575;-92
2022/05/29 04:39:24;;;;;;;2.47;1.47;;;;;;;21.51;76.23;98514.63;6156406;23;20285;-91
2022/05/29 04:41:50;;;;;;;4.87;2.20;;;;;;;21.55;76.73;98499.09;6130658;23;20629;-91
2022/05/29 04:44:15;;;;;;;3.73;1.63;;;;;;;21.59;77.04;98503.13;6130775;23;20155;-92
2022/05/29 04:46:41;;;;;;;6.57;2.53;;;;;;;21.71;77.07;98491.13;6130471;23;20166;-92
2022/05/29 04:49:06;;;;;;;5.10;2.33;;;;;;;21.91;76.96;98495.97;6156160;23;20154;-91
2022/05/29 04:51:32;;;;;;;8.63;2.63;;;;;;;22.03;76.09;98493.81;6130562;23;20233;-91
2022/05/29 04:53:57;;;;;;;4.07;2.40;;;;;;;22.15;75.04;98487.13;6130775;23;20155;-92
2022/05/29 04:56:22;;;;;;;4.70;1.87;;;;;;;22.25;74.43;98470.94;6130306;23;20179;-92
2022/05/29 04:58:48;;;;;;;11.43;2.70;;;;;;;22.34;74.94;98462.72;6130943;23;20603;-91
2022/05/29 05:01:13;;;;;;;6.30;2.13;;;;;;;22.50;74.83;98460.00;6133458;23;20155;-93
2022/05/29 05:03:39;;;;;;;3.10;1.50;;;;;;;22.59;73.90;98472.31;6154991;23;20155;-92
2022/05/29 05:06:04;;;;;;;7.07;2.57;;;;;;;22.72;73.67;98477.13;6130573;23;20155;-91
2022/05/29 05:08:30;;;;;;;10.20;2.67;;;;;;;22.84;72.17;98474.94;6155952;23;20166;-92
2022/05/29 05:10:56;;;;;;;7.33;2.63;;;;;;;23.06;72.06;98456.25;6156081;23;20151;-94
2022/05/29 05:13:22;;;;;;;13.70;3.07;;;;;;;23.18;71.03;98456.72;6154883;23;20154;-92
2022/05/29 05:15:47;;;;;;;7.23;2.67;;;;;;;23.23;69.12;98465.03;6155946;23;20249;-91
2022/05/29 05:18:13;;;;;;;6.53;2.73;;;;;;;23.27;69.35;98468.19;6130577;23;20159;-92
2022/05/29 05:20:39;;;;;;;8.90;2.53;;;;;;;23.36;69.65;98462.63;6154793;23;20155;-91
2022/05/29 05:23:05;;;;;;;8.43;2.63;;;;;;;23.59;69.28;98463.47;6130240;23;20151;-91
2022/05/29 05:25:33;;;;;;;7.17;2.30;;;;;;;23.77;68.32;98461.31;6130217;23;20175;-90
2022/05/29 05:27:59;;;;;;;9.80;2.47;;;;;;;23.96;67.47;98445.75;6157125;23;20230;-91
2022/05/29 05:30:25;;;;;;;12.00;2.70;;;;;;;24.09;66.17;98443.31;6130347;23;20182;-91
2022/05/29 05:32:50;;;;;;;11.10;3.07;;;;;;;24.34;65.81;98450.09;6156171;23;20147;-92
2022/05/29 05:35:16;;;;;;;9.97;2.43;;;;;;;24.51;64.31;98440.84;6156140;23;20182;-91
2022/05/29 05:37:42;;;;;;;8.57;2.73;;;;;;;24.72;63.83;98440.94;6130160;23;20185;-91
2022/05/29 05:40:14;;;;;;;6.03;2.77;;;;;;;24.97;63.06;98449.53;6129990;23;20488;-91
2022/05/29 05:42:40;;;;;;;15.17;2.53;;;;;;;24.98;62.30;98452.00;6130243;23;20157;-92
2022/05/29 05:45:08;;;;;;;8.10;2.10;;;;;;;24.99;62.29;98456.38;6130475;23;20171;-92
2022/05/29 05:47:34;;;;;;;15.70;2.73;;;;;;;25.10;62.84;98467.63;6130419;23;20594;-91
2022/05/29 05:50:00;;;;;;;6.07;1.80;;;;;;;25.10;61.34;98465.78;6156028;23;20174;-92
2022/05/29 05:52:25;;;;;;;7.40;2.47;;;;;;;25.15;60.45;98468.72;6129924;23;20151;-92
2022/05/29 05:54:51;;;;;;;5.60;2.13;;;;;;;25.17;61.25;98468.53;6156006;23;20175;-92
2022/05/29 05:57:18;;;;;;;16.77;2.77;;;;;;;25.10;62.23;98475.66;6131186;23;20159;-91
2022/05/29 05:59:44;;;;;;;4.23;2.20;;;;;;;25.09;63.36;98482.88;6155781;23;20222;-91
2022/05/29 06:02:10;;;;;;;9.30;1.97;;;;;;;24.93;63.46;98475.88;6131048;23;20198;-92
2022/05/29 06:04:37;;;;;;;10.93;2.67;;;;;;;25.00;64.06;98474.09;6130098;23;20151;-91
2022/05/29 06:07:03;;;;;;;11.27;2.30;;;;;;;25.14;64.19;98477.78;6130041;23;20229;-92
2022/05/29 06:09:32;;;;;;;4.27;1.90;;;;;;;25.25;62.54;98471.94;6156076;23;20505;-93
2022/05/29 06:12:02;;;;;;;6.33;2.57;;;;;;;25.35;62.58;98480.50;6130296;23;20155;-92
2022/05/29 06:14:28;;;;;;;8.00;2.10;;;;;;;25.47;61.11;98488.91;6156619;23;20146;-90
2022/05/29 06:16:54;;;;;;;16.33;3.13;;;;;;;25.74;61.46;98485.47;6129968;23;20159;-92
2022/05/29 06:19:20;;;;;;;8.18;2.22;;;;;;;25.88;59.89;98481.88;6129878;23;20223;-92
2022/05/29 06:21:45;;;;;;;14.27;2.23;;;;;;;26.05;60.04;98485.09;6157476;23;20593;-93
2022/05/29 06:24:11;;;;;;;4.67;2.57;;;;;;;26.12;59.69;98489.56;6132277;23;20221;-92
2022/05/29 06:26:39;;;;;;;6.40;2.47;;;;;;;26.27;59.67;98488.63;6157485;23;20147;-92
2022/05/29 06:29:04;;;;;;;7.00;1.98;;;;;;;26.35;58.64;98496.53;6131669;23;20167;-92
2022/05/29 06:31:30;;;;;;;7.65;1.80;;;;;;;26.45;57.23;98505.06;6157938;23;20222;-92
2022/05/29 06:33:55;;;;;;;13.83;2.50;;;;;;;26.61;56.60;98502.09;6157618;23;20459;-92
2022/05/29 06:36:24;;;;;;;7.43;2.22;;;;;;;26.97;56.99;98499.19;6132267;23;20239;-92
2022/05/29 06:38:52;;;;;;;4.63;1.30;;;;;;;27.29;55.64;98482.34;6132247;23;20225;-92
2022/05/29 06:41:20;;;;;;;4.53;1.70;;;;;;;27.64;55.79;98489.31;6132020;23;20159;-92
2022/05/29 06:43:46;;;;;;;9.02;2.05;;;;;;;27.94;54.62;98487.06;6131847;23;20190;-93
2022/05/29 06:46:12;;;;;;;4.60;1.75;;;;;;;28.13;50.39;98480.88;6157728;23;20150;-92
2022/05/29 06:48:38;;;;;;;6.78;2.00;;;;;;;28.32;50.54;98465.75;6157718;23;20151;-93
2022/05/29 06:51:12;;;;;;;4.47;1.95;;;;;;;28.51;50.07;98463.00;6158401;23;20151;-93
2022/05/29 06:53:38;;;;;;;5.22;1.60;;;;;;;28.80;49.16;98459.00;6131727;23;20154;-93
2022/05/29 06:56:05;;;;;;;8.70;2.50;;;;;;;29.09;49.39;98454.94;6157535;23;20606;-93
2022/05/29 06:58:31;;;;;;;6.22;1.83;;;;;;;29.35;48.78;98454.81;6131800;23;20167;-93
2022/05/29 07:09:22;;;;;;;8.95;2.05;;;;;;;30.01;46.41;98454.38;6157542;23;20465;-93
2022/05/29 07:11:52;;;;;;;9.85;1.77;;;;;;;30.17;46.07;98456.53;6131999;23;20155;-93
2022/05/29 07:14:18;;;;;;;3.80;1.60;;;;;;;30.26;45.51;98457.94;6158579;23;20147;-94
2022/05/29 07:16:47;;;;;;;5.75;2.03;;;;;;;30.38;45.46;98446.19;6131406;23;20191;-93
2022/05/29 07:19:19;;;;;;;5.18;2.17;;;;;;;30.58;44.78;98445.16;6131669;23;20602;-93
2022/05/29 07:21:44;;;;;;;5.97;1.73;;;;;;;30.59;45.70;98447.63;6131509;23;20147;-92
2022/05/29 07:24:10;;;;;;;7.93;1.73;;;;;;;30.70;45.56;98449.59;6131335;23;20159;-92
2022/05/29 07:26:37;;;;;;;7.15;1.90;;;;;;;30.69;44.37;98441.69;6157298;23;20147;-92
2022/05/29 07:29:03;;;;;;;8.85;1.77;;;;;;;30.81;44.63;98446.13;6131447;23;20466;-92
2022/05/29 07:31:28;;;;;;;7.97;1.45;;;;;;;30.88;42.33;98449.56;6130600;23;20155;-93
2022/05/29 07:33:54;;;;;;;3.75;1.75;;;;;;;31.05;44.38;98447.13;6131731;23;20226;-93
2022/05/29 07:36:21;;;;;;;6.13;1.92;;;;;;;31.05;43.89;98440.88;6132303;23;20178;-93
2022/05/29 07:38:47;;;;;;;6.13;1.88;;;;;;;31.18;42.76;98446.94;6132708;23;20155;-93
2022/05/29 07:43:56;;;;;;;4.03;1.40;;;;;;;31.39;42.99;98432.06;6156906;23;20150;-91
2022/05/29 07:46:22;;;;;;;6.57;1.67;;;;;;;31.34;42.40;98434.66;6157106;23;20159;-92
2022/05/29 07:48:53;;;;;;;6.10;1.90;;;;;;;31.55;42.35;98426.03;6131381;23;20183;-93
2022/05/29 07:51:19;;;;;;;11.82;2.10;;;;;;;31.49;42.61;98430.50;6131939;23;20144;-93
2022/05/29 07:53:45;;;;;;;8.35;2.08;;;;;;;31.51;42.36;98422.94;6131748;23;20166;-93
2022/05/29 07:56:11;;;;;;;3.97;2.05;;;;;;;31.34;41.88;98413.78;6132019;23;20179;-94
2022/05/29 07:58:40;;;;;;;9.57;2.15;;;;;;;31.17;41.83;98415.50;6131959;23;20155;-94
2022/05/29 08:01:06;;;;;;;7.63;2.30;;;;;;;31.08;41.82;98410.63;6131675;23;20217;-94
2022/05/29 08:03:32;;;;;;;4.15;1.60;;;;;;;30.53;42.37;98399.81;6136955;23;20159;-94
2022/05/29 08:05:57;;;;;;;4.72;1.80;;;;;;;30.05;45.15;98379.94;6137414;23;20181;-93
2022/05/29 08:08:25;;;;;;;12.10;2.80;;;;;;;29.90;44.28;98371.34;6132857;23;20174;-93
2022/05/29 08:10:50;;;;;;;6.65;2.28;;;;;;;29.74;45.81;98370.00;6133758;23;20151;-94
2022/05/29 08:13:16;;;;;;;4.57;2.25;;;;;;;29.65;45.36;98376.72;6134596;23;20151;-94
2022/05/29 08:15:41;;;;;;;6.63;2.67;;;;;;;29.72;46.56;98386.44;6131964;23;20203;-92
2022/05/29 08:18:09;;;;;;;13.27;2.63;;;;;;;29.64;47.01;98405.59;6133704;23;20182;-93
2022/05/29 08:20:36;;;;;;;8.13;2.38;;;;;;;29.78;47.43;98407.19;6131403;23;20229;-92
2022/05/29 08:23:03;;;;;;;6.88;2.30;;;;;;;29.93;47.85;98406.84;6131752;23;20159;-92
2022/05/29 08:30:56;;;;;;;6.60;2.03;;;;;;;30.23;48.18;98401.59;6157839;23;20146;-94
2022/05/29 08:33:28;;;;;;;5.75;1.92;;;;;;;30.43;49.36;98399.53;6132097;23;20151;-93
2022/05/29 08:36:03;;;;;;;4.03;1.88;;;;;;;30.58;48.05;98404.56;6156773;23;20171;-93
2022/05/29 08:38:29;;;;;;;4.68;1.63;;;;;;;30.78;47.07;98391.63;6131582;23;20551;-92
2022/05/29 08:41:02;;;;;;;4.85;1.90;;;;;;;31.07;46.10;98390.03;6131567;23;20151;-94
2022/05/29 08:43:43;;;;;;;7.05;2.22;;;;;;;31.13;45.38;98389.13;6133189;23;20220;-93
2022/05/29 08:46:19;;;;;;;4.55;2.17;;;;;;;30.98;46.52;98392.22;6131545;23;20139;-93
2022/05/29 08:48:48;;;;;;;7.00;2.30;;;;;;;31.21;47.51;98392.31;6130741;23;20139;-93
2022/05/29 08:51:35;;;;;;;7.78;2.35;;;;;;;31.48;46.26;98382.78;6132793;23;20162;-94
2022/05/29 08:54:13;;;;;;;7.78;2.75;;;;;;;31.30;46.24;98379.28;6159125;23;20135;-93
2022/05/29 08:57:00;;;;;;;5.47;2.70;;;;;;;31.46;44.60;98370.50;6130778;23;20591;-92
2022/05/29 08:59:50;;;;;;;3.78;1.90;;;;;;;31.62;44.50;98372.56;6130796;23;20159;-92
2022/05/29 09:02:43;;;;;;;6.57;2.25;;;;;;;31.81;45.79;98360.56;6130565;23;20175;-93
2022/05/29 09:05:33;;;;;;;5.07;1.85;;;;;;;31.93;43.70;98358.66;6132817;23;20139;-94
2022/05/29 09:08:04;;;;;;;4.72;1.80;;;;;;;31.91;45.82;98349.13;6157695;23;20579;-93
2022/05/29 09:10:47;;;;;;;10.05;2.72;;;;;;;32.04;45.01;98348.91;6133949;23;20154;-93
2022/05/29 09:13:37;;;;;;;15.68;4.32;;;;;;;32.12;44.02;98353.97;6134599;23;20155;-94
2022/05/29 09:16:13;;;;;;;7.30;2.80;;;;;;;31.73;45.12;98346.53;6135108;23;20271;-94
2022/05/29 09:18:44;;;;;;;5.55;2.33;;;;;;;31.80;44.19;98342.63;6133989;23;20154;-93
2022/05/29 09:21:21;;;;;;;4.55;2.08;;;;;;;31.98;44.87;98345.22;6134714;23;20143;-93
2022/05/29 09:24:04;;;;;;;5.70;2.45;;;;;;;32.15;44.66;98343.47;6135374;23;20142;-95
2022/05/29 09:26:37;;;;;;;6.03;2.20;;;;;;;32.12;44.56;98340.44;6143746;23;20159;-93
2022/05/29 09:29:04;;;;;;;7.30;2.33;;;;;;;32.33;44.71;98336.25;6142077;23;20147;-93
2022/05/29 09:31:34;;;;;;;6.22;2.03;;;;;;;32.43;45.57;98337.31;6138181;23;20262;-92
2022/05/29 09:34:00;;;;;;;9.75;2.97;;;;;;;32.44;43.80;98330.00;6165907;23;20163;-92
2022/05/29 09:36:54;;;;;;;11.80;3.22;;;;;;;32.61;44.19;98318.16;6143862;23;20210;-93
2022/05/29 09:39:28;;;;;;;10.45;3.15;;;;;;;32.69;43.17;98314.25;6144569;23;20151;-94
2022/05/29 09:42:18;;;;;;;11.13;3.20;;;;;;;32.91;43.70;98308.97;6142415;23;20171;-93
2022/05/29 09:45:10;;;;;;;4.47;2.20;;;;;;;32.88;43.00;98296.69;6141916;23;20155;-94
2022/05/29 09:50:51;;;;;;;7.20;1.85;;;;;;;32.95;42.43;98285.66;6175944;23;20151;-94
2022/05/29 09:53:22;;;;;;;6.47;2.75;;;;;;;32.89;45.02;98284.75;6136756;23;20159;-92
2022/05/29 09:56:14;;;;;;;7.18;2.15;;;;;;;32.36;45.02;98284.25;6136938;23;20246;-93
2022/05/29 09:58:48;;;;;;;5.32;1.95;;;;;;;32.61;45.15;98285.59;6138037;23;20144;-93
2022/05/29 10:01:34;;;;;;;11.23;2.35;;;;;;;32.74;42.39;98295.34;6139959;23;20158;-93
2022/05/29 10:04:22;;;;;;;7.47;2.30;;;;;;;33.00;43.80;98273.00;6142283;23;20159;-94
2022/05/29 10:07:28;;;;;;;6.25;1.92;;;;;;;32.83;40.63;98277.59;6134886;23;20136;-93
2022/05/29 10:10:02;;;;;;;4.88;2.58;;;;;;;32.98;42.32;98279.75;6135683;23;20249;-92
2022/05/29 10:12:42;;;;;;;8.57;1.80;;;;;;;33.03;38.87;98274.41;6136793;23;20142;-94
2022/05/29 10:15:26;;;;;;;4.68;1.67;;;;;;;33.22;38.27;98267.72;6135573;23;20175;-93
2022/05/29 10:18:04;;;;;;;4.03;1.52;;;;;;;33.21;37.52;98269.63;6135900;23;20159;-94
2022/05/29 10:20:32;;;;;;;8.07;1.92;;;;;;;33.46;36.78;98271.94;6136265;23;20571;-94
2022/05/29 10:23:07;;;;;;;6.88;1.70;;;;;;;33.50;38.58;98272.22;6140038;23;20170;-94
2022/05/29 10:28:41;;;;;;;8.00;2.05;;;;;;;33.48;39.34;98263.50;6127575;23;20196;-91
2022/05/29 10:31:12;;;;;;;5.13;2.45;;;;;;;33.44;38.80;98256.94;6133525;23;20598;-92
2022/05/29 10:33:38;;;;;;;8.68;1.65;;;;;;;33.61;39.36;98252.34;6133430;23;20144;-92
2022/05/29 10:36:08;;;;;;;7.05;1.92;;;;;;;34.00;39.97;98241.19;6131907;23;20194;-92
2022/05/29 10:38:34;;;;;;;6.53;1.83;;;;;;;34.03;39.36;98234.44;6134141;23;20163;-93
2022/05/29 10:41:02;;;;;;;3.20;1.50;;;;;;;34.16;38.30;98228.66;6132672;23;20254;-92
2022/05/29 10:43:47;;;;;;;8.77;2.42;;;;;;;34.24;38.27;98213.78;6134109;23;20159;-93
2022/05/29 10:46:20;;;;;;;6.82;1.92;;;;;;;34.10;38.57;98212.50;6132133;23;20147;-94
2022/05/29 10:49:04;;;;;;;4.57;1.80;;;;;;;34.17;39.55;98208.53;6132083;23;20246;-93
2022/05/29 10:52:15;;;;;;;5.50;2.50;;;;;;;34.20;39.10;98199.03;6133431;23;20162;-93
2022/05/29 10:54:47;;;;;;;7.40;2.08;;;;;;;34.17;40.02;98192.22;6131474;23;20151;-91
2022/05/29 10:57:34;;;;;;;7.47;2.05;;;;;;;34.10;38.61;98190.75;6131456;23;20155;-93
2022/05/29 11:00:30;;;;;;;3.92;1.70;;;;;;;34.20;38.30;98180.81;6131788;23;20585;-92
2022/05/29 11:03:20;;;;;;;3.08;1.63;;;;;;;33.85;38.53;98164.03;6132982;23;20218;-91
2022/05/29 11:06:09;;;;;;;6.30;2.22;;;;;;;33.50;39.74;98169.78;6131222;23;20147;-92
2022/05/29 11:09:06;;;;;;;9.18;2.08;;;;;;;33.60;39.82;98153.66;6131217;23;20174;-93
2022/05/29 11:11:49;;;;;;;3.15;1.55;;;;;;;33.49;40.07;98159.19;6131372;23;20159;-92
2022/05/29 11:14:51;;;;;;;5.13;2.47;;;;;;;33.56;40.81;98157.13;6156980;23;20158;-94
2022/05/29 11:17:36;;;;;;;10.75;2.97;;;;;;;33.59;40.38;98152.03;6131393;23;20500;-92
2022/05/29 11:20:34;;;;;;;6.18;2.00;;;;;;;33.61;39.36;98149.06;6157330;23;20142;-92
2022/05/29 11:23:18;;;;;;;4.22;2.03;;;;;;;33.68;40.91;98136.09;6155912;23;20159;-93
2022/05/29 11:26:14;;;;;;;5.20;2.22;;;;;;;33.80;40.51;98125.94;6130993;23;20655;-91
2022/05/29 11:28:45;;;;;;;6.95;2.45;;;;;;;33.95;39.11;98128.81;6101905;23;20562;-91
2022/05/29 11:31:41;;;;;;;10.93;2.33;;;;;;;33.71;39.50;98130.97;6101823;23;20247;-91
2022/05/29 11:34:16;;;;;;;5.47;2.00;;;;;;;33.66;39.50;98140.97;6126517;23;20148;-92
2022/05/29 11:36:47;;;;;;;7.88;2.92;;;;;;;33.68;39.98;98127.94;6127511;23;20171;-94
2022/05/29 11:39:38;;;;;;;7.45;2.28;;;;;;;33.82;40.35;98140.06;6101794;23;20171;-94
2022/05/29 11:42:20;;;;;;;5.60;2.40;;;;;;;34.10;41.15;98137.16;6101761;23;20144;-92
2022/05/29 11:45:06;;;;;;;5.53;2.15;;;;;;;34.23;40.08;98131.31;6102051;23;20494;-90
2022/05/29 11:53:32;;;;;;;4.07;2.35;;;;;;;33.49;39.98;98123.88;6127457;23;20147;-91
2022/05/29 11:56:03;;;;;;;10.65;2.70;;;;;;;33.27;40.85;98121.94;6101707;23;20195;-92
2022/05/29 11:58:38;;;;;;;8.55;2.28;;;;;;;33.33;42.31;98120.91;6101634;23;20492;-92
2022/05/29 12:01:17;;;;;;;8.65;2.97;;;;;;;33.48;41.97;98124.94;6127064;23;20139;-92
2022/05/29 12:04:00;;;;;;;9.80;3.60;;;;;;;33.58;41.71;98131.34;6127278;23;20140;-92
2022/05/29 12:06:39;;;;;;;8.43;3.03;;;;;;;33.58;40.84;98127.81;6101612;23;20148;-91
2022/05/29 12:09:11;;;;;;;10.77;2.75;;;;;;;33.37;41.43;98127.50;6126801;23;20191;-90
2022/05/29 12:12:15;;;;;;;7.90;2.78;;;;;;;33.33;41.87;98120.91;6101284;23;20247;-91
2022/05/29 12:15:01;;;;;;;11.43;2.72;;;;;;;33.14;41.93;98111.44;6038313;23;20208;-91
2022/05/29 12:17:43;;;;;;;4.00;2.60;;;;;;;33.45;42.28;98100.97;6101976;23;20598;-93
2022/05/29 12:20:19;;;;;;;8.60;2.97;;;;;;;33.55;42.77;98099.19;6127350;23;20136;-93
2022/05/29 12:23:19;;;;;;;6.78;2.85;;;;;;;33.73;41.47;98087.22;6101212;23;20154;-92
2022/05/29 12:25:55;;;;;;;7.18;2.92;;;;;;;33.72;40.69;98072.00;6126086;23;20151;-90
2022/05/29 12:28:32;;;;;;;9.65;4.10;;;;;;;33.77;42.00;98053.03;6101114;23;20151;-91
2022/05/29 12:30:59;;;;;;;7.82;3.70;;;;;;;33.60;40.82;98046.84;6101155;23;20151;-91
2022/05/29 12:33:25;;;;;;;12.07;3.25;;;;;;;33.80;40.78;98047.09;6101117;23;20250;-92
2022/05/29 12:35:56;;;;;;;7.35;3.50;;;;;;;33.97;42.22;98036.91;6126612;23;20175;-93
2022/05/29 12:38:33;;;;;;;7.05;3.95;;;;;;;34.13;40.20;98037.91;6101219;23;20453;-92
2022/05/29 12:41:17;;;;;;;11.75;4.90;;;;;;;33.74;41.01;98053.53;6126555;23;20136;-92
2022/05/29 12:44:23;;;;;;;9.85;4.03;;;;;;;33.71;39.84;98045.88;6127004;23;20454;-91
2022/05/29 12:47:14;;;;;;;6.38;3.60;;;;;;;33.75;40.33;98049.75;6099755;23;20605;-92
2022/05/29 12:50:10;;;;;;;10.88;3.63;;;;;;;33.92;38.46;98053.19;6127109;23;20136;-94
2022/05/29 12:53:51;;;;;;;;;;;;;;;;;;;;;
2022/05/29 12:56:38;;;;;;;8.48;3.63;;;;;;;34.08;38.96;98035.97;6038941;23;20598;-93